KADU

Details ICAO KADU
Name AUDUBON CO
Region United States
Timezone America/Chicago (UTC-6.0)
Plans Departing 0
Arriving 1
Stats Elevation 1,287 ft / 392 m (AMSL)
Location 41.701315° -94.920367°
Runways 1
Magnetic Variation 1.778° E
Sunrise 2017-12-14 13:40:37 UTC / 2017-12-14 07:40:37 Local
Sunset 2017-12-14 22:51:09 UTC / 2017-12-14 16:51:09 Local
Advertisement - Login to hide

Runways

ID Width Length Bearing (true) Bearing (mag) Surface Threshold Offset Overrun Length
14 60 ft / 18 m 3,534 ft / 1,077 m 148.01° 146.23° Concrete 130 ft / 40 m 0 ft / 0 m
32 60 ft / 18 m 3,534 ft / 1,077 m 328.01° 326.23° Concrete 0 ft / 0 m 0 ft / 0 m

Map

Weather


0- 5 10 15 20 25 30 35+ Temperature / ° C

Clouds and Precipitation
Forecast for 2017-12-15 00:00 UTC. Updated 2 hours ago

Ground ~20,000 ft ~40,000 ft Winds

METAR

KADU 150055Z AUTO 00000KT 10SM SCT050 M02/M05 A3009 RMK AO2

TAF

Not found

Frequencies

Recorded 118.07 MHz AWOS 3
Unicom 122.80 MHz CTAF/UNICOM
Warning: Do not use this data for real-world aviation or navigation. No guarantee of current accuracy is given.